Terminal Aerodrome Forecast
Issued by NWS

Home | Current Version | Previous Version | Text Only | Print | Product List | Glossary On
Versions: 1 2 3 4 5 6 7 8 9 10 11 12
000
FTUS45 KVEF 291700
TAFVGT
TAF
KVGT 291727Z 2918/3018 VRB04KT P6SM FEW250
     FM292000 14007KT P6SM SCT250
     FM300000 18008KT P6SM SCT250
     FM300400 VRB05KT P6SM SCT250=

USA.gov is the U.S. government's official web portal to all federal, state and local government web resources and services.